Time;durP1;ratioP1;P1;durP2;ratioP2;P2;SDS_P1;SDS_P2;PMS_P1;PMS_P2;Temp;Humidity;BMP_temperature;BMP_pressure;BME280_temperature;BME280_humidity;BME280_pressure;Samples;Min_cycle;Max_cycle;Signal;HPM_P1;HPM_P2
2022/02/27 00:01:32;;;;;;;30.02;16.33;;;1.90;83.70;;;;;;4949620;28;20031;-83
2022/02/27 00:03:58;;;;;;;32.20;16.58;;;1.90;83.70;;;;;;4963368;28;20026;-84
2022/02/27 00:06:23;;;;;;;24.60;14.00;;;1.90;83.70;;;;;;4944914;28;20189;-84
2022/02/27 00:08:49;;;;;;;26.48;14.57;;;1.90;83.70;;;;;;4962013;28;20074;-83
2022/02/27 00:11:15;;;;;;;29.42;15.27;;;1.90;83.90;;;;;;4960787;28;20031;-83
2022/02/27 00:13:41;;;;;;;26.90;15.13;;;1.90;84.00;;;;;;4966768;28;20382;-84
2022/02/27 00:16:06;;;;;;;28.27;15.18;;;1.80;84.00;;;;;;4943779;28;20178;-83
2022/02/27 00:18:33;;;;;;;24.85;14.77;;;1.80;84.10;;;;;;4927294;28;20163;-83
2022/02/27 00:20:58;;;;;;;24.15;14.45;;;1.80;84.10;;;;;;4924944;28;20028;-83
2022/02/27 00:23:24;;;;;;;29.52;15.45;;;1.80;84.00;;;;;;4923022;28;20090;-83
2022/02/27 00:25:50;;;;;;;23.55;14.35;;;1.70;84.10;;;;;;4925877;28;20031;-83
2022/02/27 00:28:16;;;;;;;28.75;15.05;;;1.70;84.10;;;;;;4923342;28;20451;-85
2022/02/27 00:30:41;;;;;;;32.13;16.13;;;1.70;84.20;;;;;;4928375;28;20038;-83
2022/02/27 00:33:07;;;;;;;22.20;14.60;;;1.70;84.20;;;;;;4923221;28;20107;-83
2022/02/27 00:35:33;;;;;;;24.65;14.10;;;1.70;84.20;;;;;;4929305;28;20038;-82
2022/02/27 00:37:59;;;;;;;27.17;14.77;;;1.70;84.20;;;;;;4921946;28;20044;-84
2022/02/27 00:40:25;;;;;;;27.55;14.40;;;1.70;84.30;;;;;;4924853;28;20070;-82
2022/02/27 00:42:51;;;;;;;25.98;13.90;;;1.70;84.20;;;;;;4926904;28;20119;-83
2022/02/27 00:45:17;;;;;;;30.02;14.60;;;1.60;84.10;;;;;;4921638;28;20106;-83
2022/02/27 00:47:43;;;;;;;26.90;14.80;;;1.60;84.10;;;;;;4928161;28;20157;-84
2022/02/27 00:50:09;;;;;;;30.95;15.73;;;1.60;84.20;;;;;;4914880;29;20040;-84
2022/02/27 00:52:35;;;;;;;22.20;15.50;;;1.60;84.20;;;;;;4916342;28;20031;-83
2022/02/27 00:55:02;;;;;;;31.40;16.63;;;1.60;84.10;;;;;;4912509;28;20036;-83
2022/02/27 00:57:29;;;;;;;28.40;15.77;;;1.60;84.00;;;;;;4926336;28;20126;-85
2022/02/27 00:59:56;;;;;;;26.75;14.85;;;1.60;83.90;;;;;;4926181;28;20087;-84
2022/02/27 01:02:22;;;;;;;29.70;14.50;;;1.60;83.90;;;;;;4931616;28;20110;-84
2022/02/27 01:04:48;;;;;;;27.25;14.43;;;1.60;83.90;;;;;;4927225;28;20531;-84
2022/02/27 01:07:14;;;;;;;25.85;14.68;;;1.60;83.90;;;;;;4925182;28;20032;-84
2022/02/27 01:09:39;;;;;;;27.70;14.75;;;1.60;83.90;;;;;;4922098;28;20502;-84
2022/02/27 01:12:06;;;;;;;31.77;13.88;;;1.60;83.70;;;;;;4931112;28;20034;-85
2022/02/27 01:14:32;;;;;;;28.58;14.52;;;1.60;83.70;;;;;;4920696;28;20039;-84
2022/02/27 01:17:01;;;;;;;26.42;13.82;;;1.60;83.70;;;;;;4952605;28;20053;-85
2022/02/27 01:19:27;;;;;;;25.15;13.18;;;1.60;83.60;;;;;;4951049;28;20379;-83
2022/02/27 01:21:53;;;;;;;26.50;14.68;;;1.50;83.50;;;;;;4972203;28;20037;-84
2022/02/27 01:24:19;;;;;;;26.15;14.77;;;1.50;83.60;;;;;;4960239;28;20038;-84
2022/02/27 01:26:46;;;;;;;28.30;13.23;;;1.40;83.50;;;;;;4967914;28;20044;-84
2022/02/27 01:29:11;;;;;;;24.10;13.82;;;1.40;83.50;;;;;;4963309;28;20655;-83
2022/02/27 01:31:37;;;;;;;24.20;14.07;;;1.40;83.50;;;;;;4969260;28;20043;-84
2022/02/27 01:34:03;;;;;;;24.80;14.18;;;1.40;83.60;;;;;;4980508;28;20214;-83
2022/02/27 01:36:29;;;;;;;21.33;12.80;;;1.40;83.70;;;;;;4965858;28;20074;-83
2022/02/27 01:38:54;;;;;;;24.85;13.18;;;1.40;83.70;;;;;;4976898;28;20046;-83
2022/02/27 01:41:20;;;;;;;26.55;12.70;;;1.40;83.70;;;;;;4961779;28;20509;-85
2022/02/27 01:43:46;;;;;;;25.58;13.63;;;1.30;83.60;;;;;;4960684;28;20039;-85
2022/02/27 01:46:14;;;;;;;25.20;13.45;;;1.40;83.60;;;;;;4966112;28;20096;-83
2022/02/27 01:48:40;;;;;;;25.35;12.88;;;1.30;83.40;;;;;;4971377;28;20058;-84
2022/02/27 01:51:06;;;;;;;25.90;13.65;;;1.30;83.40;;;;;;4958987;28;20038;-82
2022/02/27 01:53:33;;;;;;;20.90;11.77;;;1.30;83.30;;;;;;4956965;28;20349;-82
2022/02/27 01:55:59;;;;;;;23.05;12.90;;;1.30;83.20;;;;;;4943138;28;20073;-84
2022/02/27 01:58:29;;;;;;;21.23;12.43;;;1.20;83.30;;;;;;4972175;28;20094;-82
2022/02/27 02:00:56;;;;;;;22.05;12.63;;;1.30;83.30;;;;;;4968062;28;20039;-85
2022/02/27 02:03:22;;;;;;;22.63;12.70;;;1.20;83.30;;;;;;4957881;28;20374;-85
2022/02/27 02:05:48;;;;;;;27.92;12.93;;;1.20;83.20;;;;;;4967350;28;20106;-84
2022/02/27 02:08:15;;;;;;;25.30;12.90;;;1.30;83.20;;;;;;4965562;28;20136;-83
2022/02/27 02:10:44;;;;;;;22.23;12.90;;;1.30;83.30;;;;;;4960795;28;20449;-83
2022/02/27 02:13:11;;;;;;;23.20;13.02;;;1.30;83.20;;;;;;4956826;28;20135;-86
2022/02/27 02:15:37;;;;;;;21.88;12.95;;;1.20;82.90;;;;;;4964241;28;20092;-85
2022/02/27 02:18:10;;;;;;;21.70;12.18;;;1.20;83.00;;;;;;4968530;28;20478;-82
2022/02/27 02:20:37;;;;;;;22.75;12.10;;;1.20;83.00;;;;;;4989426;28;20377;-82
2022/02/27 02:23:05;;;;;;;22.90;11.27;;;1.10;83.10;;;;;;4967221;28;20690;-83
2022/02/27 02:25:32;;;;;;;21.88;12.05;;;1.10;83.10;;;;;;4960942;28;20086;-83
2022/02/27 02:27:58;;;;;;;23.63;12.23;;;1.10;83.30;;;;;;4963770;28;20047;-84
2022/02/27 02:30:24;;;;;;;23.92;12.60;;;1.10;83.30;;;;;;4962232;28;20045;-82
2022/02/27 02:32:57;;;;;;;19.55;11.70;;;1.10;83.20;;;;;;4965470;28;20035;-83
2022/02/27 02:35:26;;;;;;;20.02;11.23;;;1.10;83.10;;;;;;4954925;28;20477;-85
2022/02/27 02:37:53;;;;;;;22.23;11.43;;;1.10;83.20;;;;;;4960986;28;20605;-82
2022/02/27 02:40:23;;;;;;;21.65;11.63;;;1.00;83.30;;;;;;4959379;28;20617;-83
2022/02/27 02:42:49;;;;;;;19.80;10.63;;;1.00;83.30;;;;;;4956645;28;20062;-85
2022/02/27 02:45:15;;;;;;;22.95;11.48;;;1.00;83.30;;;;;;4960637;28;20493;-83
2022/02/27 02:47:46;;;;;;;19.77;11.30;;;0.90;83.30;;;;;;4970515;28;20042;-83
2022/02/27 02:50:13;;;;;;;22.77;10.88;;;0.90;83.40;;;;;;4959356;28;20061;-85
2022/02/27 02:52:39;;;;;;;23.20;11.35;;;0.90;83.50;;;;;;4960873;28;20443;-82
2022/02/27 02:55:10;;;;;;;27.40;11.90;;;0.80;83.50;;;;;;4962485;28;20438;-83
2022/02/27 02:57:36;;;;;;;23.13;11.38;;;0.80;83.60;;;;;;4949290;28;20441;-82
2022/02/27 03:00:05;;;;;;;23.40;10.70;;;0.70;83.70;;;;;;4960258;28;20027;-83
2022/02/27 03:02:31;;;;;;;21.27;10.90;;;0.70;83.70;;;;;;4961178;28;20039;-83
2022/02/27 03:04:57;;;;;;;19.60;10.82;;;0.60;83.70;;;;;;4963955;28;20220;-84
2022/02/27 03:07:22;;;;;;;21.38;10.13;;;0.70;83.80;;;;;;4974663;28;20043;-82
2022/02/27 03:09:48;;;;;;;19.48;10.13;;;0.60;83.80;;;;;;4960111;28;20038;-83
2022/02/27 03:12:13;;;;;;;23.02;10.73;;;0.60;83.80;;;;;;4968262;28;20579;-84
2022/02/27 03:14:39;;;;;;;19.95;10.10;;;0.60;83.80;;;;;;4948336;28;20086;-85
2022/02/27 03:17:05;;;;;;;21.60;9.90;;;0.60;83.80;;;;;;4945214;28;20054;-85
2022/02/27 03:19:31;;;;;;;18.42;8.68;;;0.60;83.90;;;;;;4963223;28;20464;-83
2022/02/27 03:21:56;;;;;;;22.00;9.48;;;0.60;84.00;;;;;;4966021;28;20085;-86
2022/02/27 03:24:22;;;;;;;16.85;9.25;;;0.50;83.90;;;;;;4962858;28;20841;-86
2022/02/27 03:26:48;;;;;;;16.77;8.77;;;0.60;83.90;;;;;;4964689;28;20038;-86
2022/02/27 03:29:13;;;;;;;19.83;8.57;;;0.50;83.80;;;;;;4962583;28;20050;-84
2022/02/27 03:31:39;;;;;;;23.05;9.48;;;0.50;83.80;;;;;;4963450;28;20049;-84
2022/02/27 03:34:04;;;;;;;19.27;9.02;;;0.50;83.70;;;;;;4967196;28;20677;-84
2022/02/27 03:36:30;;;;;;;17.70;8.25;;;0.40;83.70;;;;;;4959124;28;20419;-83
2022/02/27 03:38:56;;;;;;;19.95;8.65;;;0.50;83.70;;;;;;4949829;28;20384;-85
2022/02/27 03:41:21;;;;;;;20.00;8.32;;;0.50;83.50;;;;;;4969419;28;20116;-83
2022/02/27 03:43:47;;;;;;;20.88;9.02;;;0.50;83.50;;;;;;4966676;28;20031;-83
2022/02/27 03:46:13;;;;;;;17.55;8.40;;;0.40;83.50;;;;;;4973786;28;20033;-82
2022/02/27 03:48:40;;;;;;;14.68;8.45;;;0.40;83.60;;;;;;4966588;28;20101;-83
2022/02/27 03:51:06;;;;;;;21.70;8.77;;;0.30;83.60;;;;;;4943041;28;20066;-83
2022/02/27 03:53:32;;;;;;;19.88;8.60;;;0.30;83.70;;;;;;4972348;28;20505;-83
2022/02/27 03:55:58;;;;;;;21.75;9.40;;;0.30;83.80;;;;;;4971180;28;20031;-85
2022/02/27 03:58:24;;;;;;;21.50;8.77;;;0.30;83.70;;;;;;4964933;28;20565;-82
2022/02/27 04:00:49;;;;;;;19.48;8.63;;;0.30;83.70;;;;;;4978955;28;20031;-83
2022/02/27 04:03:15;;;;;;;17.40;8.30;;;0.20;83.60;;;;;;4962453;28;20078;-81
2022/02/27 04:05:41;;;;;;;19.30;9.52;;;0.20;83.60;;;;;;4964445;28;20039;-83
2022/02/27 04:08:08;;;;;;;16.83;8.48;;;0.20;83.60;;;;;;4968091;28;20574;-81
2022/02/27 04:10:33;;;;;;;18.65;9.50;;;0.10;83.70;;;;;;4970309;28;20110;-83
2022/02/27 04:12:59;;;;;;;22.20;9.65;;;0.10;83.70;;;;;;4947561;28;20053;-83
2022/02/27 04:15:25;;;;;;;18.98;8.75;;;0.10;83.80;;;;;;4953100;28;20038;-84
2022/02/27 04:17:51;;;;;;;17.50;9.75;;;0.10;83.70;;;;;;4979145;28;20082;-83
2022/02/27 04:20:17;;;;;;;22.92;9.23;;;0.10;83.90;;;;;;4965778;28;20169;-85
2022/02/27 04:22:44;;;;;;;18.88;10.25;;;0.10;83.80;;;;;;4958207;28;20037;-83
2022/02/27 04:25:10;;;;;;;21.10;9.85;;;0.10;84.00;;;;;;4964335;28;20039;-89
2022/02/27 04:27:36;;;;;;;20.08;9.95;;;0.10;84.20;;;;;;4963849;28;20053;-86
2022/02/27 04:30:01;;;;;;;21.30;10.90;;;0.10;84.30;;;;;;4966495;28;20065;-82
2022/02/27 04:32:27;;;;;;;19.98;9.68;;;0.00;84.40;;;;;;4963577;28;20030;-86
2022/02/27 04:34:52;;;;;;;20.85;10.38;;;0.10;84.60;;;;;;4963667;28;20031;-84
2022/02/27 04:37:18;;;;;;;23.67;10.20;;;0.10;84.70;;;;;;4958601;28;20043;-89
2022/02/27 04:39:44;;;;;;;20.85;9.27;;;0.10;84.70;;;;;;4951672;28;20125;-82
2022/02/27 04:42:10;;;;;;;21.08;9.80;;;0.10;84.80;;;;;;4955534;28;20038;-83
2022/02/27 04:44:35;;;;;;;25.58;11.00;;;0.10;84.80;;;;;;4949691;28;20450;-82
2022/02/27 04:47:01;;;;;;;25.13;10.75;;;0.20;84.80;;;;;;4959419;28;20050;-84
2022/02/27 04:49:27;;;;;;;22.58;10.18;;;0.20;84.90;;;;;;4953115;28;20043;-85
2022/02/27 04:51:53;;;;;;;20.38;10.38;;;0.20;84.80;;;;;;4966548;28;20410;-86
2022/02/27 04:54:19;;;;;;;16.52;9.52;;;0.10;84.80;;;;;;4947430;28;20118;-84
2022/02/27 04:56:44;;;;;;;21.92;10.70;;;0.10;84.80;;;;;;4964522;28;20486;-83
2022/02/27 04:59:10;;;;;;;28.38;9.90;;;0.10;84.80;;;;;;4968909;28;20367;-91
2022/02/27 05:01:36;;;;;;;19.42;10.15;;;0.10;84.80;;;;;;4974903;28;20561;-85
2022/02/27 05:04:02;;;;;;;26.55;9.90;;;0.10;85.00;;;;;;4962747;28;20399;-85
2022/02/27 05:06:27;;;;;;;17.90;8.90;;;0.10;85.00;;;;;;4972939;28;20380;-83
2022/02/27 05:08:53;;;;;;;28.95;11.50;;;0.10;85.10;;;;;;4965980;28;20035;-82
2022/02/27 05:11:19;;;;;;;22.48;10.32;;;0.10;85.00;;;;;;4978204;28;20650;-80
2022/02/27 05:13:44;;;;;;;18.00;9.57;;;0.00;85.10;;;;;;4948392;28;20596;-84
2022/02/27 05:16:10;;;;;;;23.50;10.23;;;0.00;85.20;;;;;;4975751;28;20093;-89
2022/02/27 05:18:36;;;;;;;23.65;10.32;;;0.10;85.20;;;;;;4966595;28;20046;-80
2022/02/27 05:21:01;;;;;;;18.90;9.52;;;0.00;85.20;;;;;;4970289;28;20066;-84
2022/02/27 05:23:27;;;;;;;19.10;9.40;;;0.00;85.10;;;;;;4969981;28;20033;-83
2022/02/27 05:25:58;;;;;;;18.67;10.18;;;0.00;85.20;;;;;;4960415;28;20022;-84
2022/02/27 05:28:24;;;;;;;19.10;9.85;;;0.00;85.10;;;;;;4960704;28;20054;-85
2022/02/27 05:30:50;;;;;;;17.35;9.38;;;0.00;85.30;;;;;;4966910;28;20042;-85
2022/02/27 05:33:16;;;;;;;21.67;9.65;;;0.00;85.30;;;;;;4946247;28;20030;-82
2022/02/27 05:35:41;;;;;;;18.45;9.35;;;0.00;85.30;;;;;;4964094;28;20031;-81
2022/02/27 05:38:07;;;;;;;18.50;10.95;;;-3276.70;85.30;;;;;;4966593;28;20038;-83
2022/02/27 05:40:33;;;;;;;20.63;9.55;;;-3276.70;85.30;;;;;;4966123;28;20101;-83
2022/02/27 05:42:58;;;;;;;19.92;10.02;;;-3276.60;85.40;;;;;;4960556;28;20094;-83
2022/02/27 05:45:24;;;;;;;20.33;10.05;;;-3276.60;85.40;;;;;;4967612;28;20385;-84
2022/02/27 05:47:49;;;;;;;21.58;9.95;;;-3276.60;85.50;;;;;;4965457;28;20043;-85
2022/02/27 05:50:15;;;;;;;20.20;9.75;;;-3276.60;85.60;;;;;;4978127;28;20038;-82
2022/02/27 05:52:41;;;;;;;18.65;9.50;;;-3276.60;85.60;;;;;;4965747;28;20031;-82
2022/02/27 05:55:07;;;;;;;15.18;9.63;;;-3276.50;85.60;;;;;;4964781;28;20359;-85
2022/02/27 05:57:32;;;;;;;20.00;9.82;;;-3276.50;85.60;;;;;;4968368;28;20408;-83
2022/02/27 05:59:58;;;;;;;20.83;9.52;;;-3276.50;85.70;;;;;;4945003;28;20054;-82
2022/02/27 06:02:24;;;;;;;20.58;9.35;;;-3276.50;85.70;;;;;;4970518;28;20037;-84
2022/02/27 06:04:49;;;;;;;21.60;10.32;;;-3276.50;85.70;;;;;;4964748;28;20667;-81
2022/02/27 06:07:15;;;;;;;20.52;9.50;;;-3276.50;85.70;;;;;;4967273;28;20026;-87
2022/02/27 06:09:41;;;;;;;18.33;9.25;;;-3276.50;85.80;;;;;;4953198;28;20051;-83
2022/02/27 06:12:07;;;;;;;21.08;9.35;;;-3276.50;85.80;;;;;;4949592;28;20552;-84
2022/02/27 06:14:32;;;;;;;20.42;10.00;;;-3276.40;85.80;;;;;;4945943;28;20109;-82
2022/02/27 06:16:58;;;;;;;22.23;10.45;;;-3276.50;85.70;;;;;;4964506;28;20046;-88
2022/02/27 06:19:25;;;;;;;24.98;10.45;;;-3276.40;85.80;;;;;;4963274;28;20074;-85
2022/02/27 06:21:51;;;;;;;17.40;8.57;;;-3276.40;85.80;;;;;;4970614;28;20165;-81
2022/02/27 06:24:16;;;;;;;17.33;8.93;;;-3276.40;85.90;;;;;;4969800;28;20026;-86
2022/02/27 06:26:42;;;;;;;21.42;8.35;;;-3276.40;85.90;;;;;;4970890;28;20389;-82
2022/02/27 06:29:08;;;;;;;20.38;9.90;;;-3276.30;86.00;;;;;;4964522;28;20042;-82
2022/02/27 06:31:33;;;;;;;15.55;8.93;;;-3276.40;86.10;;;;;;4964061;28;20039;-83
2022/02/27 06:33:59;;;;;;;20.23;9.27;;;-3276.40;86.10;;;;;;4967425;28;20027;-81
2022/02/27 06:36:25;;;;;;;22.98;9.93;;;-3276.40;86.00;;;;;;4969652;28;20074;-83
2022/02/27 06:38:50;;;;;;;17.75;8.70;;;-3276.40;86.10;;;;;;4962574;28;20372;-85
2022/02/27 06:41:16;;;;;;;17.65;8.90;;;-3276.40;86.00;;;;;;4966466;28;20041;-82
2022/02/27 06:43:42;;;;;;;19.83;8.82;;;-3276.40;86.00;;;;;;4950854;28;20240;-86
2022/02/27 06:46:08;;;;;;;20.05;9.20;;;-3276.40;86.00;;;;;;4967658;28;20388;-81
2022/02/27 06:48:34;;;;;;;23.08;9.30;;;-3276.50;85.90;;;;;;4963837;28;20699;-84
2022/02/27 06:50:59;;;;;;;18.83;8.05;;;-3276.50;85.90;;;;;;4956892;28;20121;-83
2022/02/27 06:53:25;;;;;;;18.70;8.68;;;-3276.50;85.90;;;;;;4961658;28;21102;-80
2022/02/27 06:55:51;;;;;;;18.45;8.88;;;-3276.50;85.80;;;;;;4966470;28;20023;-81
2022/02/27 06:58:18;;;;;;;15.45;8.18;;;-3276.50;85.80;;;;;;4967832;28;20042;-82
2022/02/27 07:00:44;;;;;;;17.67;8.70;;;-3276.50;85.70;;;;;;4948927;28;20046;-83
2022/02/27 07:03:10;;;;;;;16.42;8.68;;;-3276.60;85.60;;;;;;4942085;28;20031;-81
2022/02/27 07:05:36;;;;;;;17.92;8.27;;;-3276.60;85.60;;;;;;4957510;28;20038;-82
2022/02/27 07:08:02;;;;;;;16.60;9.27;;;-3276.60;85.50;;;;;;4955185;28;20078;-83
2022/02/27 07:10:27;;;;;;;21.35;8.57;;;-3276.60;85.50;;;;;;4960194;28;20030;-86
2022/02/27 07:12:53;;;;;;;22.73;8.85;;;-3276.70;85.50;;;;;;4953668;28;20584;-82
2022/02/27 07:15:19;;;;;;;17.65;9.00;;;-3276.70;85.40;;;;;;4958433;28;20027;-84
2022/02/27 07:17:45;;;;;;;20.15;9.90;;;0.00;85.30;;;;;;4953767;28;20457;-87
2022/02/27 07:20:10;;;;;;;22.73;10.18;;;0.00;85.20;;;;;;4954172;28;20043;-88
2022/02/27 07:22:37;;;;;;;20.85;8.55;;;0.00;85.20;;;;;;4955157;28;20034;-84
2022/02/27 07:25:08;;;;;;;18.48;8.90;;;0.00;85.10;;;;;;4954882;28;20433;-83
2022/02/27 07:27:35;;;;;;;19.77;8.45;;;0.10;85.00;;;;;;4955933;28;20046;-80
2022/02/27 07:30:01;;;;;;;17.27;8.15;;;0.10;84.90;;;;;;4957628;28;20071;-86
2022/02/27 07:32:27;;;;;;;17.10;8.52;;;0.10;84.80;;;;;;4959024;28;20534;-85
2022/02/27 07:34:53;;;;;;;18.95;9.18;;;0.20;84.60;;;;;;4940488;28;20130;-84
2022/02/27 07:37:18;;;;;;;15.02;7.50;;;0.20;84.60;;;;;;4957947;28;20066;-83
2022/02/27 07:39:44;;;;;;;13.88;7.97;;;0.30;84.40;;;;;;4959869;28;20042;-84
2022/02/27 07:42:10;;;;;;;18.00;7.93;;;0.30;84.30;;;;;;4957766;28;20561;-84
2022/02/27 07:44:36;;;;;;;18.73;8.57;;;0.40;84.20;;;;;;4960918;28;20034;-87
2022/02/27 07:47:02;;;;;;;17.65;7.53;;;0.40;84.10;;;;;;4967885;28;20142;-87
2022/02/27 07:49:28;;;;;;;15.20;7.38;;;0.50;84.10;;;;;;4958528;28;20038;-84
2022/02/27 07:51:54;;;;;;;12.95;6.60;;;0.60;84.00;;;;;;4966166;28;20478;-84
2022/02/27 07:54:20;;;;;;;15.80;7.15;;;0.60;84.00;;;;;;4958007;28;20333;-80
2022/02/27 07:56:46;;;;;;;17.30;6.57;;;0.70;84.00;;;;;;4959367;28;20094;-85
2022/02/27 07:59:12;;;;;;;13.93;6.90;;;0.70;83.80;;;;;;4954548;28;20042;-82
2022/02/27 08:01:38;;;;;;;17.30;7.22;;;0.80;83.70;;;;;;4956883;28;20102;-82
2022/02/27 08:04:04;;;;;;;20.42;8.85;;;0.90;83.60;;;;;;4957684;28;20039;-84
2022/02/27 08:06:32;;;;;;;18.08;7.82;;;1.00;83.40;;;;;;4957151;28;20038;-83
2022/02/27 08:09:01;;;;;;;14.73;7.43;;;1.10;83.10;;;;;;4958165;28;20102;-84
2022/02/27 08:11:27;;;;;;;16.08;7.18;;;1.20;82.80;;;;;;4960365;28;20039;-82
2022/02/27 08:13:53;;;;;;;17.48;7.95;;;1.30;82.30;;;;;;4937865;28;20473;-80
2022/02/27 08:16:19;;;;;;;18.17;8.07;;;1.40;82.10;;;;;;4960582;28;20066;-83
2022/02/27 08:18:45;;;;;;;23.00;11.48;;;1.50;81.80;;;;;;4955513;28;20035;-83
2022/02/27 08:21:10;;;;;;;19.85;8.85;;;1.60;81.50;;;;;;4952152;28;20473;-87
2022/02/27 08:23:36;;;;;;;19.27;8.70;;;1.80;81.20;;;;;;4951131;28;20467;-85
2022/02/27 08:26:02;;;;;;;22.10;10.63;;;1.90;80.70;;;;;;4956651;28;20031;-84
2022/02/27 08:28:31;;;;;;;17.67;7.82;;;2.10;80.40;;;;;;4953663;28;20514;-82
2022/02/27 08:30:58;;;;;;;13.40;7.68;;;2.30;79.50;;;;;;4955295;28;20039;-84
2022/02/27 08:33:24;;;;;;;15.32;7.13;;;2.50;78.70;;;;;;4956411;28;20427;-82
2022/02/27 08:35:50;;;;;;;14.27;6.75;;;2.60;78.00;;;;;;4957199;28;20517;-82
2022/02/27 08:38:16;;;;;;;16.88;7.38;;;2.90;77.80;;;;;;4949171;28;20028;-85
2022/02/27 08:40:42;;;;;;;16.60;7.65;;;3.00;77.20;;;;;;4951441;28;20042;-85
2022/02/27 08:43:08;;;;;;;15.15;7.63;;;3.20;76.50;;;;;;4949162;28;20093;-84
2022/02/27 08:45:33;;;;;;;17.67;8.13;;;3.50;75.20;;;;;;4957947;28;20055;-84
2022/02/27 08:47:59;;;;;;;19.80;8.73;;;3.60;74.40;;;;;;4952979;28;20044;-84
2022/02/27 08:50:25;;;;;;;21.23;9.30;;;3.80;73.30;;;;;;4950823;28;20047;-85
2022/02/27 08:52:51;;;;;;;13.52;8.23;;;4.10;72.50;;;;;;4942730;28;20043;-83
2022/02/27 08:55:17;;;;;;;15.50;9.20;;;4.40;71.30;;;;;;4956463;28;20261;-84
2022/02/27 08:57:46;;;;;;;17.02;8.35;;;4.60;71.20;;;;;;4950784;28;20031;-84
2022/02/27 09:00:14;;;;;;;16.92;8.63;;;4.90;70.60;;;;;;4952068;28;20113;-83
2022/02/27 09:02:40;;;;;;;16.83;9.40;;;5.00;68.60;;;;;;4941761;28;20114;-84
2022/02/27 09:05:07;;;;;;;16.13;8.27;;;5.10;68.30;;;;;;4946892;28;20039;-85
2022/02/27 09:07:36;;;;;;;15.68;8.02;;;5.20;66.60;;;;;;4948129;28;20105;-86
2022/02/27 09:10:04;;;;;;;15.10;6.28;;;5.30;66.70;;;;;;4958822;28;20386;-83
2022/02/27 09:12:29;;;;;;;10.90;5.30;;;5.30;66.00;;;;;;4946564;28;20042;-84
2022/02/27 09:14:56;;;;;;;14.70;6.32;;;5.30;65.80;;;;;;4936197;28;20538;-84
2022/02/27 09:17:22;;;;;;;12.18;5.85;;;5.60;66.30;;;;;;4950785;28;20562;-83
2022/02/27 09:19:49;;;;;;;14.10;6.93;;;5.70;66.50;;;;;;4937386;28;20142;-83
2022/02/27 09:22:15;;;;;;;12.88;6.20;;;5.90;65.80;;;;;;4958224;28;20093;-73
2022/02/27 09:24:40;;;;;;;11.85;4.32;;;6.10;64.90;;;;;;4949272;28;20035;-72
2022/02/27 09:27:06;;;;;;;10.05;4.82;;;6.40;64.00;;;;;;4951655;28;20038;-71
2022/02/27 09:29:32;;;;;;;13.63;4.85;;;6.60;63.30;;;;;;4956423;28;20034;-75
2022/02/27 09:31:58;;;;;;;9.65;3.83;;;6.70;62.50;;;;;;4961635;28;20046;-73
2022/02/27 09:34:24;;;;;;;12.05;4.47;;;6.50;60.60;;;;;;4958113;28;20069;-74
2022/02/27 09:36:50;;;;;;;8.52;3.92;;;6.50;60.90;;;;;;4964624;28;20435;-72
2022/02/27 09:39:16;;;;;;;12.93;6.03;;;6.60;60.60;;;;;;4964868;28;20376;-73
2022/02/27 09:41:42;;;;;;;12.77;5.88;;;6.50;60.90;;;;;;4940969;28;20031;-74
2022/02/27 09:44:09;;;;;;;10.57;4.72;;;6.70;60.30;;;;;;4962546;28;20066;-77
2022/02/27 09:46:36;;;;;;;13.23;6.28;;;6.80;59.00;;;;;;4963516;28;20089;-76
2022/02/27 09:49:03;;;;;;;12.27;5.30;;;6.90;59.70;;;;;;4944163;28;20463;-75
2022/02/27 09:51:29;;;;;;;10.98;5.05;;;7.00;59.10;;;;;;4937377;28;20037;-76
2022/02/27 09:53:55;;;;;;;12.05;5.13;;;7.10;57.70;;;;;;4960560;28;20560;-73
2022/02/27 09:56:21;;;;;;;9.85;3.70;;;7.00;57.00;;;;;;4962919;28;20054;-74
2022/02/27 09:58:48;;;;;;;8.23;3.58;;;7.00;56.30;;;;;;4949160;28;20031;-76
2022/02/27 10:01:15;;;;;;;9.68;4.05;;;7.10;56.40;;;;;;4950305;28;20022;-71
2022/02/27 10:03:41;;;;;;;7.70;3.10;;;7.20;56.00;;;;;;4940158;28;20526;-72
2022/02/27 10:06:08;;;;;;;10.90;4.82;;;7.10;56.30;;;;;;4954317;28;20090;-73
2022/02/27 10:08:48;;;;;;;9.70;3.80;;;7.20;56.80;;;;;;4960766;28;20091;-73
2022/02/27 10:11:17;;;;;;;8.77;3.83;;;7.20;56.40;;;;;;4948728;28;20121;-73
2022/02/27 10:13:49;;;;;;;8.45;3.60;;;7.40;57.00;;;;;;4948556;28;20061;-74
2022/02/27 10:16:18;;;;;;;9.02;3.75;;;7.50;55.30;;;;;;4969552;28;20078;-73
2022/02/27 10:18:46;;;;;;;11.63;4.22;;;7.60;54.50;;;;;;4959335;28;20093;-73
2022/02/27 10:21:19;;;;;;;10.13;3.90;;;7.80;55.30;;;;;;4954437;28;20039;-75
2022/02/27 10:23:55;;;;;;;11.35;3.60;;;7.80;54.40;;;;;;4964282;28;20125;-77
2022/02/27 10:26:22;;;;;;;11.10;4.20;;;7.70;53.40;;;;;;4969336;28;20065;-74
2022/02/27 10:29:15;;;;;;;7.88;3.40;;;7.60;53.30;;;;;;4963404;28;20057;-72
2022/02/27 10:31:43;;;;;;;8.98;3.60;;;7.60;52.00;;;;;;4950712;28;20121;-70
2022/02/27 10:34:14;;;;;;;9.10;3.20;;;7.60;53.40;;;;;;4943425;28;20039;-73
2022/02/27 10:37:10;;;;;;;10.82;3.28;;;7.70;52.00;;;;;;4949725;28;20416;-70
2022/02/27 10:39:42;;;;;;;;;;;7.80;52.90;;;;;;4946494;28;20865;-75
2022/02/27 10:42:16;;;;;;;8.25;3.45;;;7.90;51.90;;;;;;4951358;28;19925;-75
2022/02/27 10:44:53;;;;;;;6.70;3.08;;;8.10;51.50;;;;;;4971134;28;20043;-72
2022/02/27 10:47:27;;;;;;;11.25;3.83;;;8.30;51.60;;;;;;4957866;28;20042;-76
2022/02/27 10:49:55;;;;;;;6.72;3.08;;;8.10;50.60;;;;;;4951581;28;20051;-73
2022/02/27 10:52:22;;;;;;;10.38;3.90;;;8.10;50.80;;;;;;4953660;28;20055;-78
2022/02/27 10:54:54;;;;;;;8.27;3.33;;;8.10;50.80;;;;;;4955986;28;20507;-74
2022/02/27 10:57:30;;;;;;;7.22;2.90;;;8.10;49.90;;;;;;4957987;28;20118;-72
2022/02/27 11:00:02;;;;;;;8.52;3.70;;;8.10;51.00;;;;;;4975859;28;20060;-72
2022/02/27 11:02:29;;;;;;;6.35;2.95;;;8.20;50.30;;;;;;4943336;28;20537;-73
2022/02/27 11:04:56;;;;;;;9.50;3.25;;;8.20;50.40;;;;;;4964301;28;20085;-72
2022/02/27 11:07:22;;;;;;;9.88;4.20;;;8.30;50.00;;;;;;4957637;28;20105;-73
2022/02/27 11:09:49;;;;;;;6.50;2.88;;;8.50;50.50;;;;;;4945107;28;20050;-72
2022/02/27 11:12:14;;;;;;;6.80;3.22;;;8.60;49.90;;;;;;4952583;28;20093;-73
2022/02/27 11:14:42;;;;;;;7.68;3.20;;;8.40;49.60;;;;;;4952117;28;20039;-74
2022/02/27 11:17:10;;;;;;;8.35;3.50;;;8.60;50.20;;;;;;4949662;28;20043;-72
2022/02/27 11:19:37;;;;;;;5.88;3.03;;;8.70;49.90;;;;;;4946889;28;20385;-73
2022/02/27 11:22:05;;;;;;;10.82;4.07;;;8.70;49.10;;;;;;4951255;28;20037;-73
2022/02/27 11:24:33;;;;;;;7.35;3.13;;;8.80;49.80;;;;;;4949949;28;20047;-74
2022/02/27 11:27:00;;;;;;;8.68;3.47;;;8.90;49.70;;;;;;4946787;28;20571;-72
2022/02/27 11:29:26;;;;;;;7.22;2.72;;;8.90;49.40;;;;;;4938481;28;20349;-72
2022/02/27 11:31:52;;;;;;;7.45;3.42;;;8.90;49.60;;;;;;4965421;28;20733;-72
2022/02/27 11:34:19;;;;;;;9.85;3.53;;;9.10;50.30;;;;;;4959277;28;20065;-73
2022/02/27 11:36:51;;;;;;;6.53;3.03;;;9.30;50.00;;;;;;4969038;28;20045;-74
2022/02/27 11:42:03;;;;;;;8.05;3.45;;;9.30;49.70;;;;;;4963026;28;20533;-73
2022/02/27 11:44:36;;;;;;;6.97;2.85;;;9.40;48.80;;;;;;4963636;28;20058;-75
2022/02/27 11:47:10;;;;;;;7.85;3.05;;;9.40;48.00;;;;;;4944935;28;20026;-72
2022/02/27 11:49:40;;;;;;;7.72;2.97;;;9.40;49.60;;;;;;4964314;28;20035;-73
2022/02/27 11:52:15;;;;;;;7.13;3.00;;;9.30;48.60;;;;;;4982394;28;20023;-74
2022/02/27 11:54:46;;;;;;;7.32;2.95;;;9.50;47.80;;;;;;4951168;28;20046;-78
2022/02/27 11:57:20;;;;;;;7.38;2.70;;;9.60;48.20;;;;;;4952638;28;20106;-72
2022/02/27 11:59:53;;;;;;;8.10;2.80;;;9.70;45.90;;;;;;4975196;28;20129;-72
2022/02/27 12:02:47;;;;;;;6.60;2.30;;;9.80;44.90;;;;;;4962469;28;20041;-73
2022/02/27 12:05:40;;;;;;;4.97;2.40;;;9.70;44.20;;;;;;4978256;28;20642;-72
2022/02/27 12:08:14;;;;;;;6.15;2.72;;;9.90;44.30;;;;;;4962185;28;20579;-72
2022/02/27 12:10:45;;;;;;;5.60;2.40;;;10.10;44.50;;;;;;4937156;28;20039;-76
2022/02/27 12:13:28;;;;;;;7.25;2.60;;;10.00;42.40;;;;;;4962218;28;20078;-72
2022/02/27 12:16:05;;;;;;;8.25;2.60;;;9.90;43.20;;;;;;4964482;28;20540;-73
2022/02/27 12:18:45;;;;;;;5.15;2.30;;;9.90;43.20;;;;;;4960675;28;20043;-73
2022/02/27 12:21:11;;;;;;;6.47;2.45;;;10.10;41.40;;;;;;4962337;28;20053;-75
2022/02/27 12:23:41;;;;;;;6.43;2.30;;;10.20;41.90;;;;;;4967542;28;20453;-80
2022/02/27 12:26:08;;;;;;;3.92;2.00;;;10.20;41.90;;;;;;4962826;28;20045;-75
2022/02/27 12:28:49;;;;;;;5.05;2.28;;;10.20;40.30;;;;;;4944214;28;20047;-72
2022/02/27 12:31:22;;;;;;;6.18;2.50;;;10.20;41.10;;;;;;4950273;28;20089;-73
2022/02/27 12:33:49;;;;;;;6.53;2.60;;;10.10;41.10;;;;;;4977575;28;20031;-79
2022/02/27 12:36:22;;;;;;;6.20;2.30;;;10.20;40.00;;;;;;4980076;28;20048;-72
2022/02/27 12:38:49;;;;;;;6.25;2.70;;;10.30;40.60;;;;;;4951170;28;20525;-79
2022/02/27 12:41:18;;;;;;;4.95;2.25;;;10.30;40.80;;;;;;4956564;28;20061;-74
2022/02/27 12:43:45;;;;;;;6.40;2.65;;;10.30;40.30;;;;;;4960186;28;20557;-73